GLD166 SSHZ-SSFB
Flight info
| Callsign | GLD166 |
|---|---|
| Flight time | 0h 55m |
| Altitude | 5500 |
| Route | 2729S05407W 2705S05338W 2625S05330W |
| Aircraft | C182/M-SDFGIRY/S |
Departure
| Time | 2026-05-07 13:34 |
|---|---|
| Airport | Walter Bündchen Airport (SSHZ) |
Arrival
| Time | 2026-05-07 14:29 |
|---|---|
| Airport | Paulo Abdala Airport (SSFB) |
| Time | Latitude | Longitude | Altitude | Speed | Heading |
|---|---|---|---|---|---|
| 2026-05-07 13:31 | -27.64065 | -54.33802 | 1029 ft | 3 kts | 146° |
| 2026-05-07 13:31 | -27.64068 | -54.33777 | 1024 ft | 2 kts | 45° |
| 2026-05-07 13:32 | -27.64061 | -54.33777 | 1023 ft | 0 kts | 348° |
| 2026-05-07 13:33 | -27.64060 | -54.33777 | 1023 ft | 3 kts | 348° |
| 2026-05-07 13:33 | -27.64024 | -54.33751 | 1024 ft | 6 kts | 25° |
| 2026-05-07 13:33 | -27.63970 | -54.33780 | 1024 ft | 25 kts | 322° |
| 2026-05-07 13:33 | -27.63720 | -54.33988 | 1090 ft | 54 kts | 334° |
| 2026-05-07 13:34 | -27.63439 | -54.34347 | 1227 ft | 66 kts | 324° |
| 2026-05-07 13:34 | -27.63477 | -54.35416 | 1625 ft | 109 kts | 246° |
| 2026-05-07 13:34 | -27.64173 | -54.35851 | 1851 ft | 133 kts | 189° |
| 2026-05-07 13:35 | -27.64973 | -54.35450 | 2056 ft | 120 kts | 117° |
| 2026-05-07 13:35 | -27.65127 | -54.34689 | 2303 ft | 82 kts | 47° |
| 2026-05-07 13:35 | -27.64882 | -54.34204 | 2788 ft | 73 kts | 39° |
| 2026-05-07 13:35 | -27.64681 | -54.33580 | 2915 ft | 90 kts | 42° |
| 2026-05-07 13:36 | -27.64446 | -54.32894 | 3061 ft | 100 kts | 41° |
| 2026-05-07 13:36 | -27.64007 | -54.32209 | 3240 ft | 119 kts | 39° |
| 2026-05-07 13:36 | -27.63371 | -54.31527 | 3386 ft | 132 kts | 44° |
| 2026-05-07 13:36 | -27.62696 | -54.30770 | 3529 ft | 140 kts | 44° |
| 2026-05-07 13:37 | -27.61998 | -54.29992 | 3669 ft | 145 kts | 44° |
| 2026-05-07 13:37 | -27.61273 | -54.29183 | 3800 ft | 147 kts | 44° |
| 2026-05-07 13:37 | -27.60543 | -54.28369 | 3931 ft | 149 kts | 44° |
| 2026-05-07 13:37 | -27.59806 | -54.27547 | 4056 ft | 149 kts | 44° |
| 2026-05-07 13:38 | -27.59065 | -54.26725 | 4184 ft | 150 kts | 44° |
| 2026-05-07 13:38 | -27.58328 | -54.25907 | 4314 ft | 149 kts | 44° |
| 2026-05-07 13:38 | -27.57585 | -54.25080 | 4440 ft | 151 kts | 44° |
| 2026-05-07 13:38 | -27.56842 | -54.24257 | 4564 ft | 149 kts | 44° |
| 2026-05-07 13:39 | -27.56102 | -54.23437 | 4681 ft | 149 kts | 44° |
| 2026-05-07 13:39 | -27.55362 | -54.22619 | 4813 ft | 149 kts | 44° |
| 2026-05-07 13:39 | -27.54621 | -54.21801 | 4937 ft | 149 kts | 44° |
| 2026-05-07 13:39 | -27.53884 | -54.20985 | 5058 ft | 149 kts | 44° |
| 2026-05-07 13:40 | -27.53145 | -54.20169 | 5189 ft | 148 kts | 44° |
| 2026-05-07 13:40 | -27.52411 | -54.19358 | 5308 ft | 147 kts | 44° |
| 2026-05-07 13:40 | -27.51681 | -54.18553 | 5428 ft | 146 kts | 44° |
| 2026-05-07 13:40 | -27.51199 | -54.18021 | 5516 ft | 147 kts | 44° |
| 2026-05-07 13:41 | -27.50234 | -54.16959 | 5683 ft | 146 kts | 44° |
| 2026-05-07 13:41 | -27.49499 | -54.16147 | 5667 ft | 154 kts | 44° |
| 2026-05-07 13:41 | -27.48694 | -54.15263 | 5483 ft | 166 kts | 44° |
| 2026-05-07 13:41 | -27.47875 | -54.14360 | 5487 ft | 163 kts | 44° |
| 2026-05-07 13:42 | -27.47069 | -54.13473 | 5491 ft | 161 kts | 44° |
| 2026-05-07 13:42 | -27.46537 | -54.12890 | 5490 ft | 161 kts | 44° |
| 2026-05-07 13:42 | -27.45732 | -54.12011 | 5489 ft | 161 kts | 43° |
| 2026-05-07 13:42 | -27.44933 | -54.11135 | 5489 ft | 160 kts | 44° |
| 2026-05-07 13:43 | -27.44137 | -54.10263 | 5489 ft | 159 kts | 44° |
| 2026-05-07 13:43 | -27.43343 | -54.09395 | 5489 ft | 159 kts | 44° |
| 2026-05-07 13:43 | -27.42542 | -54.08519 | 5489 ft | 160 kts | 43° |
| 2026-05-07 13:43 | -27.41746 | -54.07648 | 5489 ft | 159 kts | 44° |
| 2026-05-07 13:44 | -27.40952 | -54.06782 | 5488 ft | 159 kts | 44° |
| 2026-05-07 13:44 | -27.40158 | -54.05915 | 5488 ft | 159 kts | 44° |
| 2026-05-07 13:44 | -27.39359 | -54.05043 | 5489 ft | 160 kts | 43° |
| 2026-05-07 13:44 | -27.38559 | -54.04174 | 5487 ft | 160 kts | 43° |
| 2026-05-07 13:45 | -27.37757 | -54.03302 | 5490 ft | 160 kts | 43° |
| 2026-05-07 13:45 | -27.36956 | -54.02431 | 5489 ft | 160 kts | 43° |
| 2026-05-07 13:45 | -27.36153 | -54.01559 | 5491 ft | 161 kts | 44° |
| 2026-05-07 13:45 | -27.35349 | -54.00684 | 5491 ft | 161 kts | 43° |
| 2026-05-07 13:46 | -27.34552 | -53.99820 | 5490 ft | 161 kts | 43° |
| 2026-05-07 13:46 | -27.33747 | -53.98948 | 5489 ft | 161 kts | 43° |
| 2026-05-07 13:46 | -27.32944 | -53.98077 | 5490 ft | 160 kts | 43° |
| 2026-05-07 13:46 | -27.32139 | -53.97207 | 5489 ft | 160 kts | 43° |
| 2026-05-07 13:47 | -27.31334 | -53.96336 | 5493 ft | 161 kts | 43° |
| 2026-05-07 13:47 | -27.30526 | -53.95463 | 5493 ft | 161 kts | 43° |
| 2026-05-07 13:47 | -27.29716 | -53.94590 | 5492 ft | 162 kts | 43° |
| 2026-05-07 13:47 | -27.28905 | -53.93714 | 5488 ft | 160 kts | 43° |
| 2026-05-07 13:48 | -27.28101 | -53.92845 | 5489 ft | 161 kts | 43° |
| 2026-05-07 13:48 | -27.27289 | -53.91974 | 5492 ft | 162 kts | 43° |
| 2026-05-07 13:48 | -27.26478 | -53.91104 | 5490 ft | 161 kts | 43° |
| 2026-05-07 13:48 | -27.25669 | -53.90234 | 5492 ft | 161 kts | 43° |
| 2026-05-07 13:49 | -27.24868 | -53.89372 | 5489 ft | 161 kts | 43° |
| 2026-05-07 13:49 | -27.24059 | -53.88502 | 5488 ft | 160 kts | 43° |
| 2026-05-07 13:49 | -27.23254 | -53.87638 | 5487 ft | 159 kts | 43° |
| 2026-05-07 13:49 | -27.22453 | -53.86778 | 5488 ft | 159 kts | 43° |
| 2026-05-07 13:50 | -27.21653 | -53.85919 | 5487 ft | 159 kts | 43° |
| 2026-05-07 13:50 | -27.20849 | -53.85057 | 5486 ft | 159 kts | 43° |
| 2026-05-07 13:50 | -27.20049 | -53.84199 | 5486 ft | 159 kts | 43° |
| 2026-05-07 13:50 | -27.19261 | -53.83356 | 5486 ft | 159 kts | 43° |
| 2026-05-07 13:51 | -27.18463 | -53.82502 | 5486 ft | 158 kts | 43° |
| 2026-05-07 13:51 | -27.17665 | -53.81650 | 5489 ft | 159 kts | 43° |
| 2026-05-07 13:51 | -27.16861 | -53.80792 | 5488 ft | 159 kts | 43° |
| 2026-05-07 13:51 | -27.16057 | -53.79928 | 5490 ft | 160 kts | 43° |
| 2026-05-07 13:52 | -27.15249 | -53.79066 | 5491 ft | 160 kts | 43° |
| 2026-05-07 13:52 | -27.14442 | -53.78204 | 5489 ft | 160 kts | 43° |
| 2026-05-07 13:52 | -27.13633 | -53.77343 | 5488 ft | 160 kts | 43° |
| 2026-05-07 13:52 | -27.12825 | -53.76483 | 5487 ft | 160 kts | 43° |
| 2026-05-07 13:53 | -27.12019 | -53.75628 | 5490 ft | 160 kts | 43° |
| 2026-05-07 13:53 | -27.11212 | -53.74769 | 5488 ft | 160 kts | 43° |
| 2026-05-07 13:53 | -27.10402 | -53.73908 | 5490 ft | 160 kts | 43° |
| 2026-05-07 13:53 | -27.09592 | -53.73049 | 5487 ft | 159 kts | 43° |
| 2026-05-07 13:54 | -27.08793 | -53.72202 | 5488 ft | 160 kts | 43° |
| 2026-05-07 13:54 | -27.07982 | -53.71341 | 5491 ft | 160 kts | 43° |
| 2026-05-07 13:54 | -27.07171 | -53.70482 | 5487 ft | 160 kts | 43° |
| 2026-05-07 13:54 | -27.06357 | -53.69634 | 5488 ft | 159 kts | 40° |
| 2026-05-07 13:55 | -27.05328 | -53.69211 | 5453 ft | 159 kts | 10° |
| 2026-05-07 13:55 | -27.04243 | -53.68973 | 5455 ft | 159 kts | 11° |
| 2026-05-07 13:55 | -27.03158 | -53.68724 | 5458 ft | 159 kts | 11° |
| 2026-05-07 13:55 | -27.02069 | -53.68480 | 5458 ft | 160 kts | 11° |
| 2026-05-07 13:56 | -27.00977 | -53.68232 | 5456 ft | 160 kts | 11° |
| 2026-05-07 13:56 | -26.99902 | -53.67989 | 5462 ft | 160 kts | 11° |
| 2026-05-07 13:56 | -26.98809 | -53.67742 | 5458 ft | 160 kts | 11° |
| 2026-05-07 13:56 | -26.97716 | -53.67497 | 5456 ft | 160 kts | 11° |
| 2026-05-07 13:57 | -26.96627 | -53.67253 | 5460 ft | 159 kts | 11° |
| 2026-05-07 13:57 | -26.95536 | -53.67009 | 5456 ft | 160 kts | 11° |
| 2026-05-07 13:57 | -26.94447 | -53.66764 | 5460 ft | 160 kts | 11° |
| 2026-05-07 13:57 | -26.93356 | -53.66521 | 5458 ft | 160 kts | 11° |
| 2026-05-07 13:58 | -26.92263 | -53.66275 | 5460 ft | 160 kts | 10° |
| 2026-05-07 13:58 | -26.91174 | -53.66032 | 5458 ft | 160 kts | 11° |
| 2026-05-07 13:58 | -26.90084 | -53.65789 | 5460 ft | 160 kts | 11° |
| 2026-05-07 13:58 | -26.88998 | -53.65550 | 5459 ft | 159 kts | 10° |
| 2026-05-07 13:59 | -26.87909 | -53.65310 | 5460 ft | 160 kts | 10° |
| 2026-05-07 13:59 | -26.86820 | -53.65069 | 5457 ft | 159 kts | 10° |
| 2026-05-07 13:59 | -26.85735 | -53.64829 | 5459 ft | 159 kts | 11° |
| 2026-05-07 13:59 | -26.84651 | -53.64590 | 5456 ft | 159 kts | 10° |
| 2026-05-07 14:00 | -26.83581 | -53.64354 | 5459 ft | 159 kts | 10° |
| 2026-05-07 14:00 | -26.82497 | -53.64116 | 5458 ft | 158 kts | 10° |
| 2026-05-07 14:00 | -26.81413 | -53.63878 | 5457 ft | 159 kts | 10° |
| 2026-05-07 14:00 | -26.80333 | -53.63641 | 5454 ft | 158 kts | 10° |
| 2026-05-07 14:01 | -26.79255 | -53.63405 | 5457 ft | 158 kts | 10° |
| 2026-05-07 14:01 | -26.78172 | -53.63169 | 5456 ft | 158 kts | 10° |
| 2026-05-07 14:01 | -26.77089 | -53.62934 | 5457 ft | 158 kts | 10° |
| 2026-05-07 14:01 | -26.76007 | -53.62699 | 5455 ft | 158 kts | 10° |
| 2026-05-07 14:02 | -26.74927 | -53.62465 | 5456 ft | 158 kts | 10° |
| 2026-05-07 14:02 | -26.73848 | -53.62232 | 5457 ft | 158 kts | 10° |
| 2026-05-07 14:02 | -26.72766 | -53.61998 | 5457 ft | 158 kts | 10° |
| 2026-05-07 14:02 | -26.71680 | -53.61765 | 5457 ft | 159 kts | 10° |
| 2026-05-07 14:03 | -26.70594 | -53.61531 | 5457 ft | 159 kts | 10° |
| 2026-05-07 14:03 | -26.69523 | -53.61300 | 5457 ft | 158 kts | 10° |
| 2026-05-07 14:03 | -26.68441 | -53.61068 | 5456 ft | 158 kts | 10° |
| 2026-05-07 14:03 | -26.67358 | -53.60835 | 5462 ft | 159 kts | 10° |
| 2026-05-07 14:04 | -26.66269 | -53.60602 | 5456 ft | 159 kts | 10° |
| 2026-05-07 14:04 | -26.65178 | -53.60369 | 5457 ft | 159 kts | 10° |
| 2026-05-07 14:04 | -26.64091 | -53.60138 | 5459 ft | 160 kts | 10° |
| 2026-05-07 14:04 | -26.62999 | -53.59906 | 5461 ft | 160 kts | 10° |
| 2026-05-07 14:05 | -26.61903 | -53.59675 | 5461 ft | 160 kts | 10° |
| 2026-05-07 14:05 | -26.60806 | -53.59443 | 5458 ft | 160 kts | 10° |
| 2026-05-07 14:05 | -26.59713 | -53.59214 | 5459 ft | 160 kts | 10° |
| 2026-05-07 14:05 | -26.58635 | -53.58986 | 5460 ft | 160 kts | 10° |
| 2026-05-07 14:06 | -26.57525 | -53.58753 | 5460 ft | 160 kts | 10° |
| 2026-05-07 14:06 | -26.56433 | -53.58523 | 5455 ft | 159 kts | 10° |
| 2026-05-07 14:06 | -26.55360 | -53.58298 | 5461 ft | 159 kts | 10° |
| 2026-05-07 14:06 | -26.54270 | -53.58068 | 5461 ft | 160 kts | 9° |
| 2026-05-07 14:07 | -26.53178 | -53.57841 | 5460 ft | 160 kts | 10° |
| 2026-05-07 14:07 | -26.52084 | -53.57612 | 5461 ft | 160 kts | 9° |
| 2026-05-07 14:07 | -26.50989 | -53.57385 | 5461 ft | 160 kts | 9° |
| 2026-05-07 14:07 | -26.49896 | -53.57157 | 5461 ft | 160 kts | 10° |
| 2026-05-07 14:08 | -26.48798 | -53.56931 | 5457 ft | 161 kts | 9° |
| 2026-05-07 14:08 | -26.47704 | -53.56707 | 5458 ft | 160 kts | 9° |
| 2026-05-07 14:08 | -26.46611 | -53.56482 | 5458 ft | 160 kts | 9° |
| 2026-05-07 14:08 | -26.45517 | -53.56256 | 5461 ft | 160 kts | 9° |
| 2026-05-07 14:09 | -26.44421 | -53.56029 | 5457 ft | 160 kts | 9° |
| 2026-05-07 14:09 | -26.43342 | -53.55807 | 5460 ft | 160 kts | 9° |
| 2026-05-07 14:09 | -26.42249 | -53.55584 | 5459 ft | 160 kts | 9° |
| 2026-05-07 14:09 | -26.41155 | -53.55360 | 5461 ft | 160 kts | 10° |
| 2026-05-07 14:10 | -26.40111 | -53.54969 | 5439 ft | 160 kts | 27° |
| 2026-05-07 14:10 | -26.39123 | -53.54402 | 5444 ft | 160 kts | 25° |
| 2026-05-07 14:10 | -26.38157 | -53.53847 | 5324 ft | 146 kts | 21° |
| 2026-05-07 14:10 | -26.37376 | -53.53180 | 5452 ft | 137 kts | 35° |
| 2026-05-07 14:11 | -26.36519 | -53.52610 | 5434 ft | 149 kts | 25° |
| 2026-05-07 14:11 | -26.35667 | -53.51905 | 5423 ft | 156 kts | 42° |
| 2026-05-07 14:11 | -26.34863 | -53.51094 | 5424 ft | 157 kts | 41° |
| 2026-05-07 14:11 | -26.34047 | -53.50274 | 5424 ft | 159 kts | 41° |
| 2026-05-07 14:12 | -26.33224 | -53.49446 | 5419 ft | 159 kts | 41° |
| 2026-05-07 14:12 | -26.32414 | -53.48632 | 5418 ft | 159 kts | 41° |
| 2026-05-07 14:12 | -26.31589 | -53.47801 | 5423 ft | 161 kts | 41° |
| 2026-05-07 14:12 | -26.30756 | -53.46966 | 5423 ft | 161 kts | 41° |
| 2026-05-07 14:13 | -26.29925 | -53.46133 | 5423 ft | 160 kts | 41° |
| 2026-05-07 14:13 | -26.29095 | -53.45300 | 5422 ft | 160 kts | 41° |
| 2026-05-07 14:13 | -26.28261 | -53.44470 | 5433 ft | 161 kts | 41° |
| 2026-05-07 14:13 | -26.27426 | -53.43634 | 5424 ft | 161 kts | 41° |
| 2026-05-07 14:14 | -26.26590 | -53.42801 | 5427 ft | 162 kts | 41° |
| 2026-05-07 14:14 | -26.25763 | -53.41975 | 5435 ft | 161 kts | 41° |
| 2026-05-07 14:14 | -26.24926 | -53.41140 | 5417 ft | 162 kts | 41° |
| 2026-05-07 14:14 | -26.24090 | -53.40306 | 5433 ft | 162 kts | 41° |
| 2026-05-07 14:15 | -26.23247 | -53.39470 | 5435 ft | 163 kts | 41° |
| 2026-05-07 14:15 | -26.22401 | -53.38631 | 5437 ft | 163 kts | 41° |
| 2026-05-07 14:15 | -26.21553 | -53.37787 | 5430 ft | 162 kts | 41° |
| 2026-05-07 14:15 | -26.20712 | -53.36951 | 5433 ft | 162 kts | 40° |
| 2026-05-07 14:16 | -26.19870 | -53.36114 | 5432 ft | 162 kts | 41° |
| 2026-05-07 14:16 | -26.19029 | -53.35278 | 5433 ft | 162 kts | 41° |
| 2026-05-07 14:16 | -26.18188 | -53.34442 | 5415 ft | 161 kts | 41° |
| 2026-05-07 14:16 | -26.17351 | -53.33613 | 5421 ft | 161 kts | 41° |
| 2026-05-07 14:17 | -26.16526 | -53.32797 | 5433 ft | 161 kts | 41° |
| 2026-05-07 14:17 | -26.15684 | -53.31964 | 5431 ft | 161 kts | 40° |
| 2026-05-07 14:17 | -26.14847 | -53.31137 | 5422 ft | 160 kts | 41° |
| 2026-05-07 14:17 | -26.14057 | -53.30258 | 5408 ft | 162 kts | 57° |
| 2026-05-07 14:18 | -26.13787 | -53.29041 | 5382 ft | 164 kts | 83° |
| 2026-05-07 14:18 | -26.13638 | -53.27782 | 5391 ft | 163 kts | 82° |
| 2026-05-07 14:18 | -26.13483 | -53.26531 | 5386 ft | 162 kts | 82° |
| 2026-05-07 14:18 | -26.13331 | -53.25295 | 5385 ft | 161 kts | 82° |
| 2026-05-07 14:19 | -26.13174 | -53.24061 | 5391 ft | 162 kts | 82° |
| 2026-05-07 14:19 | -26.13019 | -53.22817 | 5386 ft | 162 kts | 82° |
| 2026-05-07 14:19 | -26.12863 | -53.21584 | 5396 ft | 161 kts | 82° |
| 2026-05-07 14:19 | -26.12698 | -53.20348 | 5389 ft | 161 kts | 78° |
| 2026-05-07 14:20 | -26.12421 | -53.19144 | 5388 ft | 164 kts | 74° |
| 2026-05-07 14:20 | -26.12126 | -53.17923 | 5390 ft | 163 kts | 75° |
| 2026-05-07 14:20 | -26.11832 | -53.16702 | 5384 ft | 163 kts | 75° |
| 2026-05-07 14:20 | -26.11540 | -53.15481 | 5387 ft | 163 kts | 75° |
| 2026-05-07 14:21 | -26.11249 | -53.14262 | 5387 ft | 162 kts | 75° |
| 2026-05-07 14:21 | -26.10954 | -53.13046 | 5388 ft | 163 kts | 75° |
| 2026-05-07 14:21 | -26.10587 | -53.11861 | 5360 ft | 162 kts | 57° |
| 2026-05-07 14:21 | -26.09742 | -53.11035 | 5348 ft | 162 kts | 36° |
| 2026-05-07 14:22 | -26.08841 | -53.10279 | 5342 ft | 162 kts | 37° |
| 2026-05-07 14:22 | -26.07948 | -53.09523 | 5343 ft | 160 kts | 37° |
| 2026-05-07 14:22 | -26.07061 | -53.08774 | 5344 ft | 159 kts | 37° |
| 2026-05-07 14:22 | -26.06200 | -53.07996 | 5333 ft | 161 kts | 46° |
| 2026-05-07 14:23 | -26.05892 | -53.06823 | 5270 ft | 163 kts | 96° |
| 2026-05-07 14:23 | -26.06121 | -53.05654 | 5138 ft | 142 kts | 103° |
| 2026-05-07 14:23 | -26.06317 | -53.04642 | 4868 ft | 126 kts | 101° |
| 2026-05-07 14:23 | -26.06068 | -53.03786 | 4520 ft | 117 kts | 47° |
| 2026-05-07 14:24 | -26.05526 | -53.03154 | 4240 ft | 110 kts | 48° |
| 2026-05-07 14:24 | -26.05018 | -53.02518 | 3914 ft | 111 kts | 47° |
| 2026-05-07 14:24 | -26.04503 | -53.01874 | 3657 ft | 115 kts | 47° |
| 2026-05-07 14:24 | -26.03989 | -53.01232 | 3512 ft | 108 kts | 47° |
| 2026-05-07 14:25 | -26.03509 | -53.00634 | 3340 ft | 101 kts | 47° |
| 2026-05-07 14:25 | -26.03048 | -53.00056 | 3186 ft | 99 kts | 47° |
| 2026-05-07 14:25 | -26.02584 | -52.99482 | 3018 ft | 100 kts | 46° |
| 2026-05-07 14:25 | -26.02020 | -52.99064 | 2783 ft | 102 kts | 4° |
| 2026-05-07 14:26 | -26.01441 | -52.99456 | 2562 ft | 100 kts | 308° |
| 2026-05-07 14:26 | -26.01467 | -53.00176 | 2377 ft | 102 kts | 231° |
| 2026-05-07 14:26 | -26.01959 | -53.00760 | 2416 ft | 108 kts | 231° |
| 2026-05-07 14:26 | -26.02394 | -53.01334 | 2408 ft | 87 kts | 230° |
| 2026-05-07 14:27 | -26.02780 | -53.01839 | 2396 ft | 84 kts | 230° |
| 2026-05-07 14:27 | -26.03156 | -53.02328 | 2392 ft | 83 kts | 230° |
| 2026-05-07 14:27 | -26.03530 | -53.02815 | 2379 ft | 81 kts | 230° |
| 2026-05-07 14:27 | -26.03894 | -53.03289 | 2374 ft | 80 kts | 230° |
| 2026-05-07 14:28 | -26.04256 | -53.03761 | 2371 ft | 80 kts | 230° |
| 2026-05-07 14:28 | -26.04618 | -53.04234 | 2370 ft | 80 kts | 230° |
| 2026-05-07 14:28 | -26.04983 | -53.04708 | 2351 ft | 82 kts | 229° |
| 2026-05-07 14:28 | -26.05329 | -53.05220 | 2309 ft | 84 kts | 236° |
| 2026-05-07 14:29 | -26.05621 | -53.05770 | 2160 ft | 85 kts | 239° |
| 2026-05-07 14:29 | -26.05903 | -53.06298 | 2105 ft | 73 kts | 239° |
| 2026-05-07 14:29 | -26.06157 | -53.06774 | 2107 ft | 62 kts | 243° |
| 2026-05-07 14:29 | -26.06235 | -53.06967 | 2108 ft | 8 kts | 222° |
| 2026-05-07 14:30 | -26.06216 | -53.06921 | 2109 ft | 16 kts | 58° |
| 2026-05-07 14:30 | -26.06139 | -53.06781 | 2107 ft | 26 kts | 59° |
| 2026-05-07 14:30 | -26.06040 | -53.06595 | 2107 ft | 22 kts | 46° |
| 2026-05-07 14:30 | -26.05988 | -53.06595 | 2108 ft | 0 kts | 337° |
| 2026-05-07 14:31 | -26.05970 | -53.06592 | 2108 ft | 10 kts | 15° |
| 2026-05-07 14:31 | -26.05953 | -53.06585 | 2108 ft | 0 kts | 19° |